sensor_id;sensor_type;location;lat;lon;timestamp;temperature;humidity
46730;DHT22;32476;50.002;11.854;2023-07-24T00:00:27;14.50;99.90
46730;DHT22;32476;50.002;11.854;2023-07-24T00:02:55;14.40;99.90
46730;DHT22;32476;50.002;11.854;2023-07-24T00:05:22;14.40;99.90
46730;DHT22;32476;50.002;11.854;2023-07-24T00:07:47;14.40;99.90
46730;DHT22;32476;50.002;11.854;2023-07-24T00:10:15;14.40;99.90
46730;DHT22;32476;50.002;11.854;2023-07-24T00:12:41;14.30;99.90
46730;DHT22;32476;50.002;11.854;2023-07-24T00:15:07;14.20;99.90
46730;DHT22;32476;50.002;11.854;2023-07-24T00:17:35;14.20;99.90
46730;DHT22;32476;50.002;11.854;2023-07-24T00:20:01;14.10;99.90
46730;DHT22;32476;50.002;11.854;2023-07-24T00:22:27;14.10;99.90
46730;DHT22;32476;50.002;11.854;2023-07-24T00:24:54;14.10;99.90
46730;DHT22;32476;50.002;11.854;2023-07-24T00:27:20;14.10;99.90
46730;DHT22;32476;50.002;11.854;2023-07-24T00:29:46;14.20;99.90
46730;DHT22;32476;50.002;11.854;2023-07-24T00:32:14;14.20;99.90
46730;DHT22;32476;50.002;11.854;2023-07-24T00:34:40;14.20;99.90
46730;DHT22;32476;50.002;11.854;2023-07-24T00:37:06;14.20;99.90
46730;DHT22;32476;50.002;11.854;2023-07-24T00:39:34;14.20;99.90
46730;DHT22;32476;50.002;11.854;2023-07-24T00:42:00;14.30;99.90
46730;DHT22;32476;50.002;11.854;2023-07-24T00:44:25;14.30;99.90
46730;DHT22;32476;50.002;11.854;2023-07-24T00:46:53;14.30;99.90
46730;DHT22;32476;50.002;11.854;2023-07-24T00:49:20;14.30;99.90
46730;DHT22;32476;50.002;11.854;2023-07-24T00:51:46;14.30;99.90
46730;DHT22;32476;50.002;11.854;2023-07-24T00:54:16;14.30;99.90
46730;DHT22;32476;50.002;11.854;2023-07-24T00:56:44;14.30;99.90
46730;DHT22;32476;50.002;11.854;2023-07-24T00:59:11;14.20;99.90
46730;DHT22;32476;50.002;11.854;2023-07-24T01:01:39;14.20;99.90
46730;DHT22;32476;50.002;11.854;2023-07-24T01:04:07;14.20;99.90
46730;DHT22;32476;50.002;11.854;2023-07-24T01:06:34;14.20;99.90
46730;DHT22;32476;50.002;11.854;2023-07-24T01:09:01;14.20;99.90
46730;DHT22;32476;50.002;11.854;2023-07-24T01:11:37;14.30;99.90
46730;DHT22;32476;50.002;11.854;2023-07-24T01:14:13;14.20;99.90
46730;DHT22;32476;50.002;11.854;2023-07-24T01:16:47;14.40;99.90
46730;DHT22;32476;50.002;11.854;2023-07-24T01:19:36;14.50;99.90
46730;DHT22;32476;50.002;11.854;2023-07-24T01:22:18;14.70;99.90
46730;DHT22;32476;50.002;11.854;2023-07-24T01:27:57;15.10;99.90
46730;DHT22;32476;50.002;11.854;2023-07-24T01:30:24;15.20;99.90
46730;DHT22;32476;50.002;11.854;2023-07-24T01:32:50;15.20;99.90
46730;DHT22;32476;50.002;11.854;2023-07-24T01:35:16;15.40;99.90
46730;DHT22;32476;50.002;11.854;2023-07-24T01:37:46;15.40;99.90
46730;DHT22;32476;50.002;11.854;2023-07-24T01:40:13;15.40;99.90
46730;DHT22;32476;50.002;11.854;2023-07-24T01:42:39;15.40;99.90
46730;DHT22;32476;50.002;11.854;2023-07-24T01:45:07;15.60;99.90
46730;DHT22;32476;50.002;11.854;2023-07-24T01:47:34;15.70;99.90
46730;DHT22;32476;50.002;11.854;2023-07-24T01:50:00;15.80;99.90
46730;DHT22;32476;50.002;11.854;2023-07-24T01:52:27;15.80;99.90
46730;DHT22;32476;50.002;11.854;2023-07-24T01:54:53;15.80;99.90
46730;DHT22;32476;50.002;11.854;2023-07-24T01:57:19;15.70;99.90
46730;DHT22;32476;50.002;11.854;2023-07-24T01:59:46;15.70;99.90
46730;DHT22;32476;50.002;11.854;2023-07-24T02:02:14;15.70;99.90
46730;DHT22;32476;50.002;11.854;2023-07-24T02:04:40;15.70;99.90
46730;DHT22;32476;50.002;11.854;2023-07-24T02:07:07;15.60;99.90
46730;DHT22;32476;50.002;11.854;2023-07-24T02:09:34;15.60;99.90
46730;DHT22;32476;50.002;11.854;2023-07-24T02:12:00;15.50;99.90
46730;DHT22;32476;50.002;11.854;2023-07-24T02:14:29;15.60;99.90
46730;DHT22;32476;50.002;11.854;2023-07-24T02:16:55;15.50;99.90
46730;DHT22;32476;50.002;11.854;2023-07-24T02:19:21;15.50;99.90
46730;DHT22;32476;50.002;11.854;2023-07-24T02:21:48;15.40;99.90
46730;DHT22;32476;50.002;11.854;2023-07-24T02:24:14;15.20;99.90
46730;DHT22;32476;50.002;11.854;2023-07-24T02:26:40;15.20;99.90
46730;DHT22;32476;50.002;11.854;2023-07-24T02:29:08;15.10;99.90
46730;DHT22;32476;50.002;11.854;2023-07-24T02:31:34;15.10;99.90
46730;DHT22;32476;50.002;11.854;2023-07-24T02:34:00;15.00;99.90
46730;DHT22;32476;50.002;11.854;2023-07-24T02:36:27;14.90;99.90
46730;DHT22;32476;50.002;11.854;2023-07-24T02:38:53;14.90;99.90
46730;DHT22;32476;50.002;11.854;2023-07-24T02:41:19;14.90;99.90
46730;DHT22;32476;50.002;11.854;2023-07-24T02:43:46;14.70;99.90
46730;DHT22;32476;50.002;11.854;2023-07-24T02:46:12;14.50;99.90
46730;DHT22;32476;50.002;11.854;2023-07-24T02:48:38;14.40;99.90
46730;DHT22;32476;50.002;11.854;2023-07-24T02:51:05;14.30;99.90
46730;DHT22;32476;50.002;11.854;2023-07-24T02:53:31;14.20;99.90
46730;DHT22;32476;50.002;11.854;2023-07-24T02:55:57;14.20;99.90
46730;DHT22;32476;50.002;11.854;2023-07-24T02:58:25;14.10;99.90
46730;DHT22;32476;50.002;11.854;2023-07-24T03:00:50;13.90;99.90
46730;DHT22;32476;50.002;11.854;2023-07-24T03:03:16;13.90;99.90
46730;DHT22;32476;50.002;11.854;2023-07-24T03:05:44;13.80;99.90
46730;DHT22;32476;50.002;11.854;2023-07-24T03:08:10;13.60;99.90
46730;DHT22;32476;50.002;11.854;2023-07-24T03:10:40;13.60;99.90
46730;DHT22;32476;50.002;11.854;2023-07-24T03:13:08;13.50;99.90
46730;DHT22;32476;50.002;11.854;2023-07-24T03:15:34;13.40;99.90
46730;DHT22;32476;50.002;11.854;2023-07-24T03:18:00;13.40;99.90
46730;DHT22;32476;50.002;11.854;2023-07-24T03:20:28;13.30;99.90
46730;DHT22;32476;50.002;11.854;2023-07-24T03:22:54;13.20;99.90
46730;DHT22;32476;50.002;11.854;2023-07-24T03:25:20;13.10;99.90
46730;DHT22;32476;50.002;11.854;2023-07-24T03:27:47;13.00;99.90
46730;DHT22;32476;50.002;11.854;2023-07-24T03:30:13;13.00;99.90
46730;DHT22;32476;50.002;11.854;2023-07-24T03:32:40;12.90;99.90
46730;DHT22;32476;50.002;11.854;2023-07-24T03:35:07;12.90;99.90
46730;DHT22;32476;50.002;11.854;2023-07-24T03:37:34;12.90;99.90
46730;DHT22;32476;50.002;11.854;2023-07-24T03:40:01;12.90;99.90
46730;DHT22;32476;50.002;11.854;2023-07-24T03:42:30;12.90;99.90
46730;DHT22;32476;50.002;11.854;2023-07-24T03:44:57;12.90;99.90
46730;DHT22;32476;50.002;11.854;2023-07-24T03:47:23;13.00;99.90
46730;DHT22;32476;50.002;11.854;2023-07-24T03:49:51;12.90;99.90
46730;DHT22;32476;50.002;11.854;2023-07-24T03:52:17;12.90;99.90
46730;DHT22;32476;50.002;11.854;2023-07-24T03:54:43;12.70;99.90
46730;DHT22;32476;50.002;11.854;2023-07-24T03:57:11;12.70;99.90
46730;DHT22;32476;50.002;11.854;2023-07-24T03:59:37;12.80;99.90
46730;DHT22;32476;50.002;11.854;2023-07-24T04:02:03;12.80;99.90
46730;DHT22;32476;50.002;11.854;2023-07-24T04:04:32;12.80;99.90
46730;DHT22;32476;50.002;11.854;2023-07-24T04:06:58;12.90;99.90
46730;DHT22;32476;50.002;11.854;2023-07-24T04:09:25;12.80;99.90
46730;DHT22;32476;50.002;11.854;2023-07-24T04:11:52;12.80;99.90
46730;DHT22;32476;50.002;11.854;2023-07-24T04:14:18;12.80;99.90
46730;DHT22;32476;50.002;11.854;2023-07-24T04:16:44;12.90;99.90
46730;DHT22;32476;50.002;11.854;2023-07-24T04:19:12;12.90;99.90
46730;DHT22;32476;50.002;11.854;2023-07-24T04:21:38;13.00;99.90
46730;DHT22;32476;50.002;11.854;2023-07-24T04:24:04;13.20;99.90
46730;DHT22;32476;50.002;11.854;2023-07-24T04:26:31;13.20;99.90
46730;DHT22;32476;50.002;11.854;2023-07-24T04:28:57;13.20;99.90
46730;DHT22;32476;50.002;11.854;2023-07-24T04:31:23;13.20;99.90
46730;DHT22;32476;50.002;11.854;2023-07-24T04:33:51;13.20;99.90
46730;DHT22;32476;50.002;11.854;2023-07-24T04:36:16;13.50;99.90
46730;DHT22;32476;50.002;11.854;2023-07-24T04:38:42;13.60;99.90
46730;DHT22;32476;50.002;11.854;2023-07-24T04:41:10;13.70;99.90
46730;DHT22;32476;50.002;11.854;2023-07-24T04:43:35;13.60;99.90
46730;DHT22;32476;50.002;11.854;2023-07-24T04:46:01;13.60;99.90
46730;DHT22;32476;50.002;11.854;2023-07-24T04:48:29;13.60;99.90
46730;DHT22;32476;50.002;11.854;2023-07-24T04:50:56;13.60;99.90
46730;DHT22;32476;50.002;11.854;2023-07-24T04:53:23;13.90;99.90
46730;DHT22;32476;50.002;11.854;2023-07-24T04:55:50;14.10;99.90
46730;DHT22;32476;50.002;11.854;2023-07-24T04:58:16;14.50;99.90
46730;DHT22;32476;50.002;11.854;2023-07-24T05:00:42;14.80;99.90
46730;DHT22;32476;50.002;11.854;2023-07-24T05:03:10;15.00;99.90
46730;DHT22;32476;50.002;11.854;2023-07-24T05:05:37;15.20;99.90
46730;DHT22;32476;50.002;11.854;2023-07-24T05:08:04;15.40;99.90
46730;DHT22;32476;50.002;11.854;2023-07-24T05:10:36;15.60;99.90
46730;DHT22;32476;50.002;11.854;2023-07-24T05:13:02;15.60;99.90
46730;DHT22;32476;50.002;11.854;2023-07-24T05:15:28;15.80;99.90
46730;DHT22;32476;50.002;11.854;2023-07-24T05:17:55;15.90;99.90
46730;DHT22;32476;50.002;11.854;2023-07-24T05:20:21;16.10;99.90
46730;DHT22;32476;50.002;11.854;2023-07-24T05:22:47;16.10;99.90
46730;DHT22;32476;50.002;11.854;2023-07-24T05:25:15;16.10;99.90
46730;DHT22;32476;50.002;11.854;2023-07-24T05:27:41;16.00;99.90
46730;DHT22;32476;50.002;11.854;2023-07-24T05:30:07;15.80;99.90
46730;DHT22;32476;50.002;11.854;2023-07-24T05:32:35;15.70;99.90
46730;DHT22;32476;50.002;11.854;2023-07-24T05:35:01;15.60;99.90
46730;DHT22;32476;50.002;11.854;2023-07-24T05:37:26;15.40;99.90
46730;DHT22;32476;50.002;11.854;2023-07-24T05:39:54;15.10;99.90
46730;DHT22;32476;50.002;11.854;2023-07-24T05:42:20;15.00;99.90
46730;DHT22;32476;50.002;11.854;2023-07-24T05:44:46;15.20;99.90
46730;DHT22;32476;50.002;11.854;2023-07-24T05:47:13;15.10;99.90
46730;DHT22;32476;50.002;11.854;2023-07-24T05:49:39;15.10;99.90
46730;DHT22;32476;50.002;11.854;2023-07-24T05:52:05;15.20;99.90
46730;DHT22;32476;50.002;11.854;2023-07-24T05:54:33;15.20;99.90
46730;DHT22;32476;50.002;11.854;2023-07-24T05:56:59;15.20;99.90
46730;DHT22;32476;50.002;11.854;2023-07-24T05:59:25;15.20;99.90
46730;DHT22;32476;50.002;11.854;2023-07-24T06:01:52;15.30;99.90
46730;DHT22;32476;50.002;11.854;2023-07-24T06:04:18;15.30;99.90
46730;DHT22;32476;50.002;11.854;2023-07-24T06:06:44;15.40;99.90
46730;DHT22;32476;50.002;11.854;2023-07-24T06:09:12;15.50;99.90
46730;DHT22;32476;50.002;11.854;2023-07-24T06:11:38;15.50;99.90
46730;DHT22;32476;50.002;11.854;2023-07-24T06:14:04;15.50;99.90
46730;DHT22;32476;50.002;11.854;2023-07-24T06:16:31;15.40;99.90
46730;DHT22;32476;50.002;11.854;2023-07-24T06:18:57;15.50;99.90
46730;DHT22;32476;50.002;11.854;2023-07-24T06:21:23;15.60;99.90
46730;DHT22;32476;50.002;11.854;2023-07-24T06:23:50;15.80;99.90
46730;DHT22;32476;50.002;11.854;2023-07-24T06:26:16;15.90;99.90
46730;DHT22;32476;50.002;11.854;2023-07-24T06:28:43;16.10;99.90
46730;DHT22;32476;50.002;11.854;2023-07-24T06:31:10;16.30;99.90
46730;DHT22;32476;50.002;11.854;2023-07-24T06:33:36;16.50;99.90
46730;DHT22;32476;50.002;11.854;2023-07-24T06:36:02;16.50;99.90
46730;DHT22;32476;50.002;11.854;2023-07-24T06:38:30;16.60;99.90
46730;DHT22;32476;50.002;11.854;2023-07-24T06:40:56;16.60;99.90
46730;DHT22;32476;50.002;11.854;2023-07-24T06:43:22;16.50;99.90
46730;DHT22;32476;50.002;11.854;2023-07-24T06:45:49;16.40;99.90
46730;DHT22;32476;50.002;11.854;2023-07-24T06:48:15;16.30;99.90
46730;DHT22;32476;50.002;11.854;2023-07-24T06:50:41;16.30;99.90
46730;DHT22;32476;50.002;11.854;2023-07-24T06:53:08;16.40;99.90
46730;DHT22;32476;50.002;11.854;2023-07-24T06:55:34;16.50;99.90
46730;DHT22;32476;50.002;11.854;2023-07-24T06:58:00;16.50;99.90
46730;DHT22;32476;50.002;11.854;2023-07-24T07:00:28;16.70;99.90
46730;DHT22;32476;50.002;11.854;2023-07-24T07:02:54;16.70;99.90
46730;DHT22;32476;50.002;11.854;2023-07-24T07:05:19;16.90;99.90
46730;DHT22;32476;50.002;11.854;2023-07-24T07:07:47;17.10;99.90
46730;DHT22;32476;50.002;11.854;2023-07-24T07:10:13;17.50;99.90
46730;DHT22;32476;50.002;11.854;2023-07-24T07:12:39;17.70;99.90
46730;DHT22;32476;50.002;11.854;2023-07-24T07:15:07;17.90;99.90
46730;DHT22;32476;50.002;11.854;2023-07-24T07:17:33;18.10;99.90
46730;DHT22;32476;50.002;11.854;2023-07-24T07:19:59;18.30;99.90
46730;DHT22;32476;50.002;11.854;2023-07-24T07:22:26;18.80;99.90
46730;DHT22;32476;50.002;11.854;2023-07-24T07:24:52;18.80;99.90
46730;DHT22;32476;50.002;11.854;2023-07-24T07:27:18;19.20;99.90
46730;DHT22;32476;50.002;11.854;2023-07-24T07:29:46;19.30;99.90
46730;DHT22;32476;50.002;11.854;2023-07-24T07:32:12;19.60;99.90
46730;DHT22;32476;50.002;11.854;2023-07-24T07:34:37;19.60;99.90
46730;DHT22;32476;50.002;11.854;2023-07-24T07:37:06;19.90;99.90
46730;DHT22;32476;50.002;11.854;2023-07-24T07:39:32;20.00;99.90
46730;DHT22;32476;50.002;11.854;2023-07-24T07:41:58;20.10;99.90
46730;DHT22;32476;50.002;11.854;2023-07-24T07:44:26;20.20;99.90
46730;DHT22;32476;50.002;11.854;2023-07-24T07:46:51;20.40;99.90
46730;DHT22;32476;50.002;11.854;2023-07-24T07:49:17;20.20;99.90
46730;DHT22;32476;50.002;11.854;2023-07-24T07:51:45;20.30;99.90
46730;DHT22;32476;50.002;11.854;2023-07-24T07:54:11;20.20;99.90
46730;DHT22;32476;50.002;11.854;2023-07-24T07:56:37;20.00;99.90
46730;DHT22;32476;50.002;11.854;2023-07-24T07:59:04;19.90;99.90
46730;DHT22;32476;50.002;11.854;2023-07-24T08:01:30;20.20;99.90
46730;DHT22;32476;50.002;11.854;2023-07-24T08:03:57;20.20;99.90
46730;DHT22;32476;50.002;11.854;2023-07-24T08:06:24;20.20;99.90
46730;DHT22;32476;50.002;11.854;2023-07-24T08:08:50;20.20;99.90
46730;DHT22;32476;50.002;11.854;2023-07-24T08:11:16;20.00;99.90
46730;DHT22;32476;50.002;11.854;2023-07-24T08:13:43;19.80;99.90
46730;DHT22;32476;50.002;11.854;2023-07-24T08:16:14;19.60;99.90
46730;DHT22;32476;50.002;11.854;2023-07-24T08:18:46;19.40;99.90
46730;DHT22;32476;50.002;11.854;2023-07-24T08:21:14;19.30;99.90
46730;DHT22;32476;50.002;11.854;2023-07-24T08:23:41;19.20;99.90
46730;DHT22;32476;50.002;11.854;2023-07-24T08:26:08;19.20;99.90
46730;DHT22;32476;50.002;11.854;2023-07-24T08:28:34;19.30;99.90
46730;DHT22;32476;50.002;11.854;2023-07-24T08:31:01;19.30;99.90
46730;DHT22;32476;50.002;11.854;2023-07-24T08:33:29;19.30;99.90
46730;DHT22;32476;50.002;11.854;2023-07-24T08:36:03;19.30;99.90
46730;DHT22;32476;50.002;11.854;2023-07-24T08:38:35;19.10;99.90
46730;DHT22;32476;50.002;11.854;2023-07-24T08:41:02;19.10;99.90
46730;DHT22;32476;50.002;11.854;2023-07-24T08:43:29;19.00;99.90
46730;DHT22;32476;50.002;11.854;2023-07-24T08:46:01;19.00;99.90
46730;DHT22;32476;50.002;11.854;2023-07-24T08:48:33;19.10;99.90
46730;DHT22;32476;50.002;11.854;2023-07-24T08:51:13;19.10;99.90
46730;DHT22;32476;50.002;11.854;2023-07-24T08:53:44;19.00;99.90
46730;DHT22;32476;50.002;11.854;2023-07-24T08:56:12;19.10;99.90
46730;DHT22;32476;50.002;11.854;2023-07-24T08:58:38;19.20;99.90
46730;DHT22;32476;50.002;11.854;2023-07-24T09:01:07;19.40;99.90
46730;DHT22;32476;50.002;11.854;2023-07-24T09:03:36;19.20;99.90
46730;DHT22;32476;50.002;11.854;2023-07-24T09:06:02;19.10;99.90
46730;DHT22;32476;50.002;11.854;2023-07-24T09:08:35;19.10;99.90
46730;DHT22;32476;50.002;11.854;2023-07-24T09:11:08;19.00;99.90
46730;DHT22;32476;50.002;11.854;2023-07-24T09:13:41;19.00;99.90
46730;DHT22;32476;50.002;11.854;2023-07-24T09:16:10;18.90;99.90
46730;DHT22;32476;50.002;11.854;2023-07-24T09:18:47;18.80;99.90
46730;DHT22;32476;50.002;11.854;2023-07-24T09:21:14;18.70;99.90
46730;DHT22;32476;50.002;11.854;2023-07-24T09:23:40;18.70;99.90
46730;DHT22;32476;50.002;11.854;2023-07-24T09:26:07;18.60;99.90
46730;DHT22;32476;50.002;11.854;2023-07-24T09:28:35;18.50;99.90
46730;DHT22;32476;50.002;11.854;2023-07-24T09:31:02;18.50;99.90
46730;DHT22;32476;50.002;11.854;2023-07-24T09:33:40;18.50;99.90
46730;DHT22;32476;50.002;11.854;2023-07-24T09:36:08;18.70;99.90
46730;DHT22;32476;50.002;11.854;2023-07-24T09:38:35;18.60;99.90
46730;DHT22;32476;50.002;11.854;2023-07-24T09:41:02;18.60;99.90
46730;DHT22;32476;50.002;11.854;2023-07-24T09:43:31;18.60;99.90
46730;DHT22;32476;50.002;11.854;2023-07-24T09:45:58;18.60;99.90
46730;DHT22;32476;50.002;11.854;2023-07-24T09:48:26;19.10;99.90
46730;DHT22;32476;50.002;11.854;2023-07-24T09:50:55;19.60;99.90
46730;DHT22;32476;50.002;11.854;2023-07-24T09:53:40;20.20;99.90
46730;DHT22;32476;50.002;11.854;2023-07-24T09:56:11;20.60;99.90
46730;DHT22;32476;50.002;11.854;2023-07-24T09:58:39;20.90;99.90
46730;DHT22;32476;50.002;11.854;2023-07-24T10:01:10;21.20;99.90
46730;DHT22;32476;50.002;11.854;2023-07-24T10:03:47;21.40;99.90
46730;DHT22;32476;50.002;11.854;2023-07-24T10:06:15;21.80;99.90
46730;DHT22;32476;50.002;11.854;2023-07-24T10:08:45;22.20;99.90
46730;DHT22;32476;50.002;11.854;2023-07-24T10:11:13;22.20;99.90
46730;DHT22;32476;50.002;11.854;2023-07-24T10:13:40;22.50;99.90
46730;DHT22;32476;50.002;11.854;2023-07-24T10:16:09;22.80;99.90
46730;DHT22;32476;50.002;11.854;2023-07-24T10:18:41;22.90;99.90
46730;DHT22;32476;50.002;11.854;2023-07-24T10:21:10;23.00;99.90
46730;DHT22;32476;50.002;11.854;2023-07-24T10:23:41;23.60;99.90
46730;DHT22;32476;50.002;11.854;2023-07-24T10:26:10;23.60;99.90
46730;DHT22;32476;50.002;11.854;2023-07-24T10:28:39;23.00;99.90
46730;DHT22;32476;50.002;11.854;2023-07-24T10:31:21;22.30;99.90
46730;DHT22;32476;50.002;11.854;2023-07-24T10:33:50;21.90;99.90
46730;DHT22;32476;50.002;11.854;2023-07-24T10:36:21;21.60;99.90
46730;DHT22;32476;50.002;11.854;2023-07-24T10:38:55;21.40;99.90
46730;DHT22;32476;50.002;11.854;2023-07-24T10:41:22;21.20;99.90
46730;DHT22;32476;50.002;11.854;2023-07-24T10:43:50;21.00;99.90
46730;DHT22;32476;50.002;11.854;2023-07-24T10:46:19;20.80;99.90
46730;DHT22;32476;50.002;11.854;2023-07-24T10:48:51;20.50;99.90
46730;DHT22;32476;50.002;11.854;2023-07-24T10:51:18;20.60;99.90
46730;DHT22;32476;50.002;11.854;2023-07-24T10:53:48;20.50;99.90
46730;DHT22;32476;50.002;11.854;2023-07-24T10:56:16;20.70;99.90
46730;DHT22;32476;50.002;11.854;2023-07-24T10:58:43;20.50;99.90
46730;DHT22;32476;50.002;11.854;2023-07-24T11:01:09;20.20;99.90
46730;DHT22;32476;50.002;11.854;2023-07-24T11:03:41;20.00;99.90
46730;DHT22;32476;50.002;11.854;2023-07-24T11:06:19;19.90;99.90
46730;DHT22;32476;50.002;11.854;2023-07-24T11:08:54;19.80;99.90
46730;DHT22;32476;50.002;11.854;2023-07-24T11:11:30;19.50;99.90
46730;DHT22;32476;50.002;11.854;2023-07-24T11:13:57;19.10;99.90
46730;DHT22;32476;50.002;11.854;2023-07-24T11:16:24;19.10;99.90
46730;DHT22;32476;50.002;11.854;2023-07-24T11:18:51;19.10;99.90
46730;DHT22;32476;50.002;11.854;2023-07-24T11:21:22;19.20;99.90
46730;DHT22;32476;50.002;11.854;2023-07-24T11:23:52;19.20;99.90
46730;DHT22;32476;50.002;11.854;2023-07-24T11:26:23;19.30;99.90
46730;DHT22;32476;50.002;11.854;2023-07-24T11:28:53;19.40;99.90
46730;DHT22;32476;50.002;11.854;2023-07-24T11:31:19;19.70;99.90
46730;DHT22;32476;50.002;11.854;2023-07-24T11:33:49;19.90;99.90
46730;DHT22;32476;50.002;11.854;2023-07-24T11:36:17;20.30;99.90
46730;DHT22;32476;50.002;11.854;2023-07-24T11:38:48;20.50;99.90
46730;DHT22;32476;50.002;11.854;2023-07-24T11:41:15;20.90;99.90
46730;DHT22;32476;50.002;11.854;2023-07-24T11:43:48;20.90;99.90
46730;DHT22;32476;50.002;11.854;2023-07-24T11:46:23;21.50;99.90
46730;DHT22;32476;50.002;11.854;2023-07-24T11:48:51;21.60;99.90
46730;DHT22;32476;50.002;11.854;2023-07-24T11:51:23;21.80;99.90
46730;DHT22;32476;50.002;11.854;2023-07-24T11:54:03;21.80;99.90
46730;DHT22;32476;50.002;11.854;2023-07-24T11:56:30;21.70;99.90
46730;DHT22;32476;50.002;11.854;2023-07-24T11:58:58;21.80;99.90
46730;DHT22;32476;50.002;11.854;2023-07-24T12:01:34;21.90;99.90
46730;DHT22;32476;50.002;11.854;2023-07-24T12:04:02;21.90;99.90
46730;DHT22;32476;50.002;11.854;2023-07-24T12:06:31;21.90;99.90
46730;DHT22;32476;50.002;11.854;2023-07-24T12:09:04;21.90;99.90
46730;DHT22;32476;50.002;11.854;2023-07-24T12:11:32;21.80;99.90
46730;DHT22;32476;50.002;11.854;2023-07-24T12:13:58;21.60;99.90
46730;DHT22;32476;50.002;11.854;2023-07-24T12:16:24;21.30;99.90
46730;DHT22;32476;50.002;11.854;2023-07-24T12:18:52;21.00;99.90
46730;DHT22;32476;50.002;11.854;2023-07-24T12:21:18;21.10;99.90
46730;DHT22;32476;50.002;11.854;2023-07-24T12:23:44;21.10;99.90
46730;DHT22;32476;50.002;11.854;2023-07-24T12:26:11;21.10;99.90
46730;DHT22;32476;50.002;11.854;2023-07-24T12:28:37;21.10;99.90
46730;DHT22;32476;50.002;11.854;2023-07-24T12:31:03;21.00;99.90
46730;DHT22;32476;50.002;11.854;2023-07-24T12:33:31;21.00;99.90
46730;DHT22;32476;50.002;11.854;2023-07-24T12:35:57;21.10;99.90
46730;DHT22;32476;50.002;11.854;2023-07-24T12:38:23;21.20;99.90
46730;DHT22;32476;50.002;11.854;2023-07-24T12:40:50;21.10;99.90
46730;DHT22;32476;50.002;11.854;2023-07-24T12:43:16;21.20;99.90
46730;DHT22;32476;50.002;11.854;2023-07-24T12:45:42;21.20;99.90
46730;DHT22;32476;50.002;11.854;2023-07-24T12:48:10;21.10;99.90
46730;DHT22;32476;50.002;11.854;2023-07-24T12:50:36;21.20;99.90
46730;DHT22;32476;50.002;11.854;2023-07-24T12:53:02;21.10;99.90
46730;DHT22;32476;50.002;11.854;2023-07-24T12:55:29;21.40;99.90
46730;DHT22;32476;50.002;11.854;2023-07-24T12:57:55;21.70;99.90
46730;DHT22;32476;50.002;11.854;2023-07-24T13:00:22;21.80;99.90
46730;DHT22;32476;50.002;11.854;2023-07-24T13:02:50;21.60;99.90
46730;DHT22;32476;50.002;11.854;2023-07-24T13:05:16;21.60;99.90
46730;DHT22;32476;50.002;11.854;2023-07-24T13:07:42;21.60;99.90
46730;DHT22;32476;50.002;11.854;2023-07-24T13:10:10;21.60;99.90
46730;DHT22;32476;50.002;11.854;2023-07-24T13:12:35;21.30;99.90
46730;DHT22;32476;50.002;11.854;2023-07-24T13:15:01;21.30;99.90
46730;DHT22;32476;50.002;11.854;2023-07-24T13:17:29;21.10;99.90
46730;DHT22;32476;50.002;11.854;2023-07-24T13:19:55;21.20;99.90
46730;DHT22;32476;50.002;11.854;2023-07-24T13:22:21;21.20;99.90
46730;DHT22;32476;50.002;11.854;2023-07-24T13:24:49;21.40;99.90
46730;DHT22;32476;50.002;11.854;2023-07-24T13:27:14;21.00;99.90
46730;DHT22;32476;50.002;11.854;2023-07-24T13:29:40;21.00;99.90
46730;DHT22;32476;50.002;11.854;2023-07-24T13:32:08;20.90;99.90
46730;DHT22;32476;50.002;11.854;2023-07-24T13:34:34;21.00;99.90
46730;DHT22;32476;50.002;11.854;2023-07-24T13:37:00;21.20;99.90
46730;DHT22;32476;50.002;11.854;2023-07-24T13:39:28;21.40;99.90
46730;DHT22;32476;50.002;11.854;2023-07-24T13:41:57;21.70;99.90
46730;DHT22;32476;50.002;11.854;2023-07-24T13:44:23;22.00;99.90
46730;DHT22;32476;50.002;11.854;2023-07-24T13:46:50;22.10;99.90
46730;DHT22;32476;50.002;11.854;2023-07-24T13:49:16;22.20;99.90
46730;DHT22;32476;50.002;11.854;2023-07-24T13:51:43;22.30;99.90
46730;DHT22;32476;50.002;11.854;2023-07-24T13:54:10;22.70;99.90
46730;DHT22;32476;50.002;11.854;2023-07-24T13:56:36;23.50;99.90
46730;DHT22;32476;50.002;11.854;2023-07-24T13:59:04;23.80;99.90
46730;DHT22;32476;50.002;11.854;2023-07-24T14:01:31;24.20;99.90
46730;DHT22;32476;50.002;11.854;2023-07-24T14:03:57;24.00;99.90
46730;DHT22;32476;50.002;11.854;2023-07-24T14:06:23;24.00;99.90
46730;DHT22;32476;50.002;11.854;2023-07-24T14:08:51;24.10;99.90
46730;DHT22;32476;50.002;11.854;2023-07-24T14:11:17;23.90;99.90
46730;DHT22;32476;50.002;11.854;2023-07-24T14:13:43;24.00;99.90
46730;DHT22;32476;50.002;11.854;2023-07-24T14:16:12;23.90;99.90
46730;DHT22;32476;50.002;11.854;2023-07-24T14:18:38;24.20;99.90
46730;DHT22;32476;50.002;11.854;2023-07-24T14:21:03;24.30;99.90
46730;DHT22;32476;50.002;11.854;2023-07-24T14:23:31;24.00;99.90
46730;DHT22;32476;50.002;11.854;2023-07-24T14:25:57;23.10;99.90
46730;DHT22;32476;50.002;11.854;2023-07-24T14:28:23;23.40;99.90
46730;DHT22;32476;50.002;11.854;2023-07-24T14:30:50;23.50;99.90
46730;DHT22;32476;50.002;11.854;2023-07-24T14:33:16;23.30;99.90
46730;DHT22;32476;50.002;11.854;2023-07-24T14:35:42;23.70;99.90
46730;DHT22;32476;50.002;11.854;2023-07-24T14:38:10;23.40;99.90
46730;DHT22;32476;50.002;11.854;2023-07-24T14:40:36;22.90;99.90
46730;DHT22;32476;50.002;11.854;2023-07-24T14:43:02;23.20;99.90
46730;DHT22;32476;50.002;11.854;2023-07-24T14:45:29;23.40;99.90
46730;DHT22;32476;50.002;11.854;2023-07-24T14:47:56;23.80;99.90
46730;DHT22;32476;50.002;11.854;2023-07-24T14:50:22;23.60;99.90
46730;DHT22;32476;50.002;11.854;2023-07-24T14:52:49;23.50;99.90
46730;DHT22;32476;50.002;11.854;2023-07-24T14:55:15;23.30;99.90
46730;DHT22;32476;50.002;11.854;2023-07-24T14:57:42;23.10;99.90
46730;DHT22;32476;50.002;11.854;2023-07-24T15:00:10;22.70;99.90
46730;DHT22;32476;50.002;11.854;2023-07-24T15:02:36;22.70;99.90
46730;DHT22;32476;50.002;11.854;2023-07-24T15:05:02;22.80;99.90
46730;DHT22;32476;50.002;11.854;2023-07-24T15:07:30;22.80;99.90
46730;DHT22;32476;50.002;11.854;2023-07-24T15:09:56;22.90;99.90
46730;DHT22;32476;50.002;11.854;2023-07-24T15:12:22;22.80;99.90
46730;DHT22;32476;50.002;11.854;2023-07-24T15:14:50;22.50;99.90
46730;DHT22;32476;50.002;11.854;2023-07-24T15:17:16;22.40;99.90
46730;DHT22;32476;50.002;11.854;2023-07-24T15:19:44;22.60;99.90